Terminal Aerodrome Forecast
Issued by NWS

Home | Current Version | Previous Version | Text Only | Print | Product List | Glossary Off
Versions: 1 2 3 4 5 6 7 8 9 10 11 12 13 14 15 16 17 18 19 20 21 22 23 24 25 26 27 28 29 30 31

000
FTUS42 KMHX 222100 AAA
TAFPGV
TAF AMD
KPGV 222139Z 2222/2318 02008KT P6SM OVC005
     FM222300 03002KT 1SM -RA BR OVC004
     FM231500 07005KT 2SM -RA BR BKN007
      AMD LTD TO CLD VIS AND WIND=

USA.gov is the U.S. government's official web portal to all federal, state and local government web resources and services.